Celine — HBEF — position and weather

sailwx.info

Track history (hours):
 
Tides and Currents Weather Stations Pressure Air Temp Water Temp Dewpoint Dewpoint Depression Visibility Wind Speed Wind Dir Waves Ship Positions

Celine

Last reported at 2016-Feb-06 06:25 UTC. Time now 2016-Feb-07 21:49 UTC.
Position N 41°16' W 010°37'.

Length 129 m; draft 5.7 m.

Type: Cargo ship. MMSI: 269057000.

Date/timePositionNaut miles runAvg speedWind from/ knotsBaromVisibWave heightAir tempDewpointWater temp
2016-Feb-06 06:25N 41°16' W 010°37'1212.2
2016-Feb-06 05:28N 41°26' W 010°29'1111.9
2016-Feb-06 04:31N 41°36' W 010°21'1212.1
2016-Feb-06 03:31N 41°46' W 010°12'1211.4
2016-Feb-06 02:28N 41°56' W 010°03'  
2016-Jan-30 05:23N 41°60' W 009°06'1012.2
2016-Jan-30 04:32N 41°50' W 009°03'1212.0
2016-Jan-30 03:33N 41°38' W 008°59'1312.6
2016-Jan-30 02:33N 41°26' W 008°56'1212.5
2016-Jan-30 01:33N 41°14' W 008°51'8 7.6
2016-Jan-30 00:33N 41°11' W 008°42'1 1.0
2016-Jan-29 23:31N 41°11' W 008°42'0 0.0
2016-Jan-29 22:31N 41°11' W 008°42'0 0.0
2016-Jan-29 21:31N 41°11' W 008°42'0 0.0
2016-Jan-29 20:31N 41°11' W 008°42'0 0.0
2016-Jan-29 19:31N 41°11' W 008°42'0 0.0
2016-Jan-29 18:31N 41°11' W 008°42'0 0.0
2016-Jan-29 17:31N 41°11' W 008°42'0 0.0
2016-Jan-29 16:32N 41°11' W 008°42'0 0.0
2016-Jan-29 15:31N 41°11' W 008°42'0 0.0
2016-Jan-29 14:31N 41°11' W 008°42'0 0.0
2016-Jan-29 13:31N 41°11' W 008°42'0 0.0
2016-Jan-29 12:31N 41°11' W 008°42'0 0.0
2016-Jan-29 11:31N 41°11' W 008°42'0 0.0
2016-Jan-29 10:32N 41°11' W 008°41'4 4.0
2016-Jan-29 09:33N 41°09' W 008°46'1110.7
2016-Jan-29 08:33N 41°19' W 008°52'1312.8
2016-Jan-29 07:33N 41°31' W 008°55'9 8.5
2016-Jan-29 06:33N 41°39' W 008°52'2 2.3
2016-Jan-29 05:32N 41°41' W 008°50'0 0.0
2016-Jan-29 04:32N 41°41' W 008°50'0 0.0
2016-Jan-29 03:32N 41°41' W 008°50'0 0.0
2016-Jan-29 02:32N 41°41' W 008°50'0 0.0
2016-Jan-29 01:32N 41°41' W 008°50'0 0.0
2016-Jan-29 00:32N 41°41' W 008°50'0 0.0
2016-Jan-28 23:32N 41°41' W 008°50'0 0.0
2016-Jan-28 22:32N 41°41' W 008°50'0 0.0
2016-Jan-28 21:29N 41°41' W 008°50'0 0.0
2016-Jan-28 20:32N 41°41' W 008°50'0 0.0
2016-Jan-28 19:32N 41°41' W 008°50'0 0.0
2016-Jan-28 18:32N 41°41' W 008°50'0 0.0
2016-Jan-28 17:32N 41°41' W 008°50'0 0.0
2016-Jan-28 16:29N 41°41' W 008°50'0 0.0
2016-Jan-28 15:23N 41°41' W 008°50'0 0.0
2016-Jan-28 14:32N 41°41' W 008°50'0 0.0
2016-Jan-28 13:32N 41°41' W 008°50'0 0.0
2016-Jan-28 12:29N 41°41' W 008°50'0 0.0
2016-Jan-28 11:32N 41°41' W 008°50'0 0.0
2016-Jan-28 10:32N 41°41' W 008°50'0 0.0
2016-Jan-28 09:32N 41°41' W 008°50'0 0.0
2016-Jan-28 08:32N 41°41' W 008°50'0 0.0
2016-Jan-28 07:32N 41°41' W 008°50'0 0.0
2016-Jan-28 06:32N 41°41' W 008°50'0 0.0
2016-Jan-28 05:32N 41°41' W 008°50'0 0.0
2016-Jan-28 04:29N 41°41' W 008°50'0 0.0
2016-Jan-28 03:32N 41°41' W 008°50'0 0.0
2016-Jan-28 02:32N 41°41' W 008°50'0 0.0
2016-Jan-28 01:32N 41°41' W 008°50'0 0.0
2016-Jan-28 00:32N 41°41' W 008°50'0 0.0
2016-Jan-27 23:32N 41°41' W 008°50'0 0.0
2016-Jan-27 22:32N 41°41' W 008°50'0 0.0
2016-Jan-27 21:29N 41°41' W 008°50'0 0.0
2016-Jan-27 20:32N 41°41' W 008°50'0 0.0
2016-Jan-27 19:32N 41°41' W 008°50'0 0.0
2016-Jan-27 18:29N 41°41' W 008°50'0 0.0
2016-Jan-27 17:26N 41°41' W 008°50'0 0.0
2016-Jan-27 16:32N 41°41' W 008°50'0 0.0
2016-Jan-27 15:32N 41°41' W 008°50'0 0.0
2016-Jan-27 14:32N 41°41' W 008°50'0 0.0
2016-Jan-27 13:32N 41°41' W 008°50'0 0.0
2016-Jan-27 12:32N 41°41' W 008°50'0 0.0
2016-Jan-27 11:26N 41°41' W 008°50'0 0.0
2016-Jan-27 10:32N 41°41' W 008°50'0 0.0
2016-Jan-27 09:29N 41°41' W 008°50'0 0.0
2016-Jan-27 08:23N 41°41' W 008°50'0 0.0
2016-Jan-27 07:32N 41°41' W 008°50'0 0.0
2016-Jan-27 06:32N 41°41' W 008°50'  
Track history (hours):
 
Tides and Currents Weather Stations Pressure Air Temp Water Temp Dewpoint Dewpoint Depression Visibility Wind Speed Wind Dir Waves Ship Positions

Celine

Last reported at 2016-Feb-06 06:25 UTC. Time now 2016-Feb-07 21:49 UTC.
Position N 41°16' W 010°37'.

Length 129 m; draft 5.7 m.

Type: Cargo ship. MMSI: 269057000.

Date/timePositionNaut miles runAvg speedWind from/ knotsBaromVisibWave heightAir tempDewpointWater temp
2016-Feb-06 06:25N 41°16' W 010°37'1212.2
2016-Feb-06 05:28N 41°26' W 010°29'1111.9
2016-Feb-06 04:31N 41°36' W 010°21'1212.1
2016-Feb-06 03:31N 41°46' W 010°12'1211.4
2016-Feb-06 02:28N 41°56' W 010°03'  
2016-Jan-30 05:23N 41°60' W 009°06'1012.2
2016-Jan-30 04:32N 41°50' W 009°03'1212.0
2016-Jan-30 03:33N 41°38' W 008°59'1312.6
2016-Jan-30 02:33N 41°26' W 008°56'1212.5
2016-Jan-30 01:33N 41°14' W 008°51'8 7.6
2016-Jan-30 00:33N 41°11' W 008°42'1 1.0
2016-Jan-29 23:31N 41°11' W 008°42'0 0.0
2016-Jan-29 22:31N 41°11' W 008°42'0 0.0
2016-Jan-29 21:31N 41°11' W 008°42'0 0.0
2016-Jan-29 20:31N 41°11' W 008°42'0 0.0
2016-Jan-29 19:31N 41°11' W 008°42'0 0.0
2016-Jan-29 18:31N 41°11' W 008°42'0 0.0
2016-Jan-29 17:31N 41°11' W 008°42'0 0.0
2016-Jan-29 16:32N 41°11' W 008°42'0 0.0
2016-Jan-29 15:31N 41°11' W 008°42'0 0.0
2016-Jan-29 14:31N 41°11' W 008°42'0 0.0
2016-Jan-29 13:31N 41°11' W 008°42'0 0.0
2016-Jan-29 12:31N 41°11' W 008°42'0 0.0
2016-Jan-29 11:31N 41°11' W 008°42'0 0.0
2016-Jan-29 10:32N 41°11' W 008°41'4 4.0
2016-Jan-29 09:33N 41°09' W 008°46'1110.7
2016-Jan-29 08:33N 41°19' W 008°52'1312.8
2016-Jan-29 07:33N 41°31' W 008°55'9 8.5
2016-Jan-29 06:33N 41°39' W 008°52'2 2.3
2016-Jan-29 05:32N 41°41' W 008°50'0 0.0
2016-Jan-29 04:32N 41°41' W 008°50'0 0.0
2016-Jan-29 03:32N 41°41' W 008°50'0 0.0
2016-Jan-29 02:32N 41°41' W 008°50'0 0.0
2016-Jan-29 01:32N 41°41' W 008°50'0 0.0
2016-Jan-29 00:32N 41°41' W 008°50'0 0.0
2016-Jan-28 23:32N 41°41' W 008°50'0 0.0
2016-Jan-28 22:32N 41°41' W 008°50'0 0.0
2016-Jan-28 21:29N 41°41' W 008°50'0 0.0
2016-Jan-28 20:32N 41°41' W 008°50'0 0.0
2016-Jan-28 19:32N 41°41' W 008°50'0 0.0
2016-Jan-28 18:32N 41°41' W 008°50'0 0.0
2016-Jan-28 17:32N 41°41' W 008°50'0 0.0
2016-Jan-28 16:29N 41°41' W 008°50'0 0.0
2016-Jan-28 15:23N 41°41' W 008°50'0 0.0
2016-Jan-28 14:32N 41°41' W 008°50'0 0.0
2016-Jan-28 13:32N 41°41' W 008°50'0 0.0
2016-Jan-28 12:29N 41°41' W 008°50'0 0.0
2016-Jan-28 11:32N 41°41' W 008°50'0 0.0
2016-Jan-28 10:32N 41°41' W 008°50'0 0.0
2016-Jan-28 09:32N 41°41' W 008°50'0 0.0
2016-Jan-28 08:32N 41°41' W 008°50'0 0.0
2016-Jan-28 07:32N 41°41' W 008°50'0 0.0
2016-Jan-28 06:32N 41°41' W 008°50'0 0.0
2016-Jan-28 05:32N 41°41' W 008°50'0 0.0
2016-Jan-28 04:29N 41°41' W 008°50'0 0.0
2016-Jan-28 03:32N 41°41' W 008°50'0 0.0
2016-Jan-28 02:32N 41°41' W 008°50'0 0.0
2016-Jan-28 01:32N 41°41' W 008°50'0 0.0
2016-Jan-28 00:32N 41°41' W 008°50'0 0.0
2016-Jan-27 23:32N 41°41' W 008°50'0 0.0
2016-Jan-27 22:32N 41°41' W 008°50'0 0.0
2016-Jan-27 21:29N 41°41' W 008°50'0 0.0
2016-Jan-27 20:32N 41°41' W 008°50'0 0.0
2016-Jan-27 19:32N 41°41' W 008°50'0 0.0
2016-Jan-27 18:29N 41°41' W 008°50'0 0.0
2016-Jan-27 17:26N 41°41' W 008°50'0 0.0
2016-Jan-27 16:32N 41°41' W 008°50'0 0.0
2016-Jan-27 15:32N 41°41' W 008°50'0 0.0
2016-Jan-27 14:32N 41°41' W 008°50'0 0.0
2016-Jan-27 13:32N 41°41' W 008°50'0 0.0
2016-Jan-27 12:32N 41°41' W 008°50'0 0.0
2016-Jan-27 11:26N 41°41' W 008°50'0 0.0
2016-Jan-27 10:32N 41°41' W 008°50'0 0.0
2016-Jan-27 09:29N 41°41' W 008°50'0 0.0
2016-Jan-27 08:23N 41°41' W 008°50'0 0.0
2016-Jan-27 07:32N 41°41' W 008°50'0 0.0
2016-Jan-27 06:32N 41°41' W 008°50'  

Dump ship's entire track history